sensor_id;sensor_type;location;lat;lon;timestamp;pressure;altitude;pressure_sealevel;temperature;humidity
55604;BME280;41468;48.838;9.330;2023-04-27T00:01:35;98418.41;;;9.31;72.32
55604;BME280;41468;48.838;9.330;2023-04-27T00:04:02;98416.63;;;9.39;72.59
55604;BME280;41468;48.838;9.330;2023-04-27T00:06:30;98416.97;;;9.37;70.38
55604;BME280;41468;48.838;9.330;2023-04-27T00:08:57;98417.94;;;9.29;69.59
55604;BME280;41468;48.838;9.330;2023-04-27T00:11:25;98415.22;;;9.29;69.33
55604;BME280;41468;48.838;9.330;2023-04-27T00:13:51;98408.38;;;9.35;68.78
55604;BME280;41468;48.838;9.330;2023-04-27T00:16:18;98405.56;;;9.32;68.96
55604;BME280;41468;48.838;9.330;2023-04-27T00:18:45;98412.88;;;9.27;68.58
55604;BME280;41468;48.838;9.330;2023-04-27T00:21:12;98406.41;;;9.16;69.09
55604;BME280;41468;48.838;9.330;2023-04-27T00:23:39;98407.81;;;9.10;69.43
55604;BME280;41468;48.838;9.330;2023-04-27T00:26:05;98404.38;;;9.13;69.56
55604;BME280;41468;48.838;9.330;2023-04-27T00:28:32;98395.50;;;9.16;69.61
55604;BME280;41468;48.838;9.330;2023-04-27T00:30:59;98394.00;;;9.19;69.91
55604;BME280;41468;48.838;9.330;2023-04-27T00:33:28;98394.56;;;9.09;69.94
55604;BME280;41468;48.838;9.330;2023-04-27T00:36:01;98389.47;;;9.07;70.24
55604;BME280;41468;48.838;9.330;2023-04-27T00:38:29;98394.91;;;9.07;70.15
55604;BME280;41468;48.838;9.330;2023-04-27T00:41:02;98392.63;;;9.09;70.12
55604;BME280;41468;48.838;9.330;2023-04-27T00:43:30;98389.19;;;9.12;70.30
55604;BME280;41468;48.838;9.330;2023-04-27T00:45:58;98387.97;;;9.10;70.67
55604;BME280;41468;48.838;9.330;2023-04-27T00:48:25;98389.59;;;8.95;71.98
55604;BME280;41468;48.838;9.330;2023-04-27T00:50:52;98389.03;;;8.89;71.80
55604;BME280;41468;48.838;9.330;2023-04-27T00:53:19;98373.88;;;8.88;72.38
55604;BME280;41468;48.838;9.330;2023-04-27T00:55:46;98383.78;;;8.96;72.18
55604;BME280;41468;48.838;9.330;2023-04-27T00:58:14;98380.19;;;8.92;71.91
55604;BME280;41468;48.838;9.330;2023-04-27T01:00:41;98374.09;;;8.99;71.82
55604;BME280;41468;48.838;9.330;2023-04-27T01:03:08;98388.00;;;8.94;71.90
55604;BME280;41468;48.838;9.330;2023-04-27T01:05:36;98380.63;;;8.78;72.53
55604;BME280;41468;48.838;9.330;2023-04-27T01:08:14;98388.66;;;8.71;72.74
55604;BME280;41468;48.838;9.330;2023-04-27T01:10:41;98384.78;;;8.72;73.26
55604;BME280;41468;48.838;9.330;2023-04-27T01:13:08;98390.22;;;8.56;73.85
55604;BME280;41468;48.838;9.330;2023-04-27T01:15:35;98379.44;;;8.60;73.88
55604;BME280;41468;48.838;9.330;2023-04-27T01:18:02;98381.34;;;8.59;73.86
55604;BME280;41468;48.838;9.330;2023-04-27T01:20:29;98388.91;;;8.66;73.77
55604;BME280;41468;48.838;9.330;2023-04-27T01:22:57;98383.03;;;8.64;73.43
55604;BME280;41468;48.838;9.330;2023-04-27T01:25:25;98390.75;;;8.78;72.89
55604;BME280;41468;48.838;9.330;2023-04-27T01:27:51;98384.97;;;8.63;73.12
55604;BME280;41468;48.838;9.330;2023-04-27T01:30:19;98385.41;;;8.50;73.66
55604;BME280;41468;48.838;9.330;2023-04-27T01:32:48;98388.47;;;8.64;72.91
55604;BME280;41468;48.838;9.330;2023-04-27T01:35:15;98377.13;;;8.62;74.68
55604;BME280;41468;48.838;9.330;2023-04-27T01:37:42;98386.47;;;8.61;76.33
55604;BME280;41468;48.838;9.330;2023-04-27T01:40:09;98387.69;;;8.48;77.44
55604;BME280;41468;48.838;9.330;2023-04-27T01:42:40;98388.28;;;8.57;77.68
55604;BME280;41468;48.838;9.330;2023-04-27T01:45:08;98387.72;;;8.35;78.14
55604;BME280;41468;48.838;9.330;2023-04-27T01:47:35;98392.22;;;8.28;78.27
55604;BME280;41468;48.838;9.330;2023-04-27T01:50:01;98391.34;;;8.24;77.25
55604;BME280;41468;48.838;9.330;2023-04-27T01:52:29;98390.47;;;8.35;76.65
55604;BME280;41468;48.838;9.330;2023-04-27T01:54:56;98396.72;;;8.36;77.50
55604;BME280;41468;48.838;9.330;2023-04-27T01:57:22;98395.28;;;8.26;77.98
55604;BME280;41468;48.838;9.330;2023-04-27T01:59:49;98399.19;;;8.41;77.61
55604;BME280;41468;48.838;9.330;2023-04-27T02:02:16;98394.25;;;8.31;78.52
55604;BME280;41468;48.838;9.330;2023-04-27T02:04:43;98403.78;;;8.09;79.28
55604;BME280;41468;48.838;9.330;2023-04-27T02:07:10;98402.81;;;8.01;79.70
55604;BME280;41468;48.838;9.330;2023-04-27T02:09:37;98398.75;;;7.95;79.98
55604;BME280;41468;48.838;9.330;2023-04-27T02:12:04;98403.97;;;8.16;79.13
55604;BME280;41468;48.838;9.330;2023-04-27T02:14:30;98408.69;;;8.19;78.60
55604;BME280;41468;48.838;9.330;2023-04-27T02:16:57;98401.41;;;8.07;79.59
55604;BME280;41468;48.838;9.330;2023-04-27T02:19:24;98408.53;;;8.12;80.01
55604;BME280;41468;48.838;9.330;2023-04-27T02:21:51;98411.09;;;8.21;80.73
55604;BME280;41468;48.838;9.330;2023-04-27T02:24:18;98406.44;;;8.21;80.28
55604;BME280;41468;48.838;9.330;2023-04-27T02:26:44;98409.34;;;8.28;79.97
55604;BME280;41468;48.838;9.330;2023-04-27T02:29:11;98406.09;;;8.38;79.50
55604;BME280;41468;48.838;9.330;2023-04-27T02:31:38;98412.22;;;8.35;77.49
55604;BME280;41468;48.838;9.330;2023-04-27T02:34:05;98415.66;;;8.32;79.12
55604;BME280;41468;48.838;9.330;2023-04-27T02:36:32;98419.19;;;8.33;79.32
55604;BME280;41468;48.838;9.330;2023-04-27T02:38:59;98418.47;;;8.20;80.08
55604;BME280;41468;48.838;9.330;2023-04-27T02:41:25;98422.13;;;8.12;80.36
55604;BME280;41468;48.838;9.330;2023-04-27T02:43:53;98415.34;;;8.06;81.89
55604;BME280;41468;48.838;9.330;2023-04-27T02:46:20;98416.75;;;8.00;82.30
55604;BME280;41468;48.838;9.330;2023-04-27T02:48:47;98420.56;;;7.83;82.63
55604;BME280;41468;48.838;9.330;2023-04-27T02:51:14;98423.13;;;7.91;82.69
55604;BME280;41468;48.838;9.330;2023-04-27T02:53:40;98419.22;;;8.05;82.49
55604;BME280;41468;48.838;9.330;2023-04-27T02:56:07;98419.53;;;7.87;83.12
55604;BME280;41468;48.838;9.330;2023-04-27T02:58:34;98420.16;;;7.96;83.58
55604;BME280;41468;48.838;9.330;2023-04-27T03:01:00;98418.13;;;7.93;83.78
55604;BME280;41468;48.838;9.330;2023-04-27T03:03:28;98431.78;;;7.81;83.79
55604;BME280;41468;48.838;9.330;2023-04-27T03:05:55;98425.81;;;8.04;81.67
55604;BME280;41468;48.838;9.330;2023-04-27T03:08:21;98426.75;;;7.95;83.11
55604;BME280;41468;48.838;9.330;2023-04-27T03:10:48;98423.50;;;7.90;84.08
55604;BME280;41468;48.838;9.330;2023-04-27T03:13:15;98425.63;;;8.12;82.12
55604;BME280;41468;48.838;9.330;2023-04-27T03:15:47;98430.09;;;8.05;81.34
55604;BME280;41468;48.838;9.330;2023-04-27T03:18:13;98430.09;;;8.05;80.32
55604;BME280;41468;48.838;9.330;2023-04-27T03:20:40;98431.66;;;8.06;79.49
55604;BME280;41468;48.838;9.330;2023-04-27T03:23:07;98430.50;;;7.91;79.90
55604;BME280;41468;48.838;9.330;2023-04-27T03:25:33;98433.97;;;8.04;79.38
55604;BME280;41468;48.838;9.330;2023-04-27T03:28:00;98435.72;;;8.12;79.11
55604;BME280;41468;48.838;9.330;2023-04-27T03:30:27;98433.25;;;8.07;79.40
55604;BME280;41468;48.838;9.330;2023-04-27T03:32:53;98432.59;;;7.97;79.39
55604;BME280;41468;48.838;9.330;2023-04-27T03:35:20;98431.25;;;8.04;79.18
55604;BME280;41468;48.838;9.330;2023-04-27T03:37:47;98431.66;;;8.06;79.37
55604;BME280;41468;48.838;9.330;2023-04-27T03:40:13;98429.38;;;8.08;78.92
55604;BME280;41468;48.838;9.330;2023-04-27T03:42:40;98425.50;;;7.93;79.72
55604;BME280;41468;48.838;9.330;2023-04-27T03:45:07;98420.19;;;8.12;78.18
55604;BME280;41468;48.838;9.330;2023-04-27T03:47:34;98422.47;;;8.10;78.90
55604;BME280;41468;48.838;9.330;2023-04-27T03:50:01;98429.13;;;8.13;78.58
55604;BME280;41468;48.838;9.330;2023-04-27T03:52:29;98417.53;;;8.00;79.05
55604;BME280;41468;48.838;9.330;2023-04-27T03:54:56;98430.00;;;8.01;79.42
55604;BME280;41468;48.838;9.330;2023-04-27T03:57:22;98429.56;;;7.99;79.37
55604;BME280;41468;48.838;9.330;2023-04-27T03:59:49;98431.56;;;8.02;79.42
55604;BME280;41468;48.838;9.330;2023-04-27T04:02:17;98431.66;;;8.06;78.83
55604;BME280;41468;48.838;9.330;2023-04-27T04:04:44;98427.41;;;7.92;79.79
55604;BME280;41468;48.838;9.330;2023-04-27T04:07:11;98435.25;;;7.94;79.67
55604;BME280;41468;48.838;9.330;2023-04-27T04:09:44;98430.13;;;7.92;79.38
55604;BME280;41468;48.838;9.330;2023-04-27T04:12:10;98432.28;;;7.99;79.58
55604;BME280;41468;48.838;9.330;2023-04-27T04:14:41;98424.44;;;7.97;78.95
55604;BME280;41468;48.838;9.330;2023-04-27T04:17:09;98437.72;;;7.99;79.43
55604;BME280;41468;48.838;9.330;2023-04-27T04:19:36;98431.72;;;7.93;79.62
55604;BME280;41468;48.838;9.330;2023-04-27T04:22:03;98432.28;;;7.99;79.12
55604;BME280;41468;48.838;9.330;2023-04-27T04:24:30;98444.22;;;8.10;78.71
55604;BME280;41468;48.838;9.330;2023-04-27T04:26:57;98433.97;;;8.04;78.39
55604;BME280;41468;48.838;9.330;2023-04-27T04:29:24;98430.78;;;8.02;78.34
55604;BME280;41468;48.838;9.330;2023-04-27T04:32:02;98444.09;;;7.91;79.42
55604;BME280;41468;48.838;9.330;2023-04-27T04:34:29;98448.03;;;7.93;79.08
55604;BME280;41468;48.838;9.330;2023-04-27T04:36:55;98441.47;;;7.94;79.23
55604;BME280;41468;48.838;9.330;2023-04-27T04:39:29;98448.53;;;7.83;79.12
55604;BME280;41468;48.838;9.330;2023-04-27T04:41:56;98442.41;;;7.86;79.09
55604;BME280;41468;48.838;9.330;2023-04-27T04:44:23;98445.09;;;7.99;78.66
55604;BME280;41468;48.838;9.330;2023-04-27T04:46:50;98443.41;;;7.94;78.69
55604;BME280;41468;48.838;9.330;2023-04-27T04:49:17;98438.91;;;7.86;79.26
55604;BME280;41468;48.838;9.330;2023-04-27T04:51:44;98455.41;;;7.93;78.89
55604;BME280;41468;48.838;9.330;2023-04-27T04:54:11;98445.50;;;7.85;79.14
55604;BME280;41468;48.838;9.330;2023-04-27T04:56:37;98451.16;;;7.80;79.57
55604;BME280;41468;48.838;9.330;2023-04-27T04:59:04;98449.31;;;7.84;79.42
55604;BME280;41468;48.838;9.330;2023-04-27T05:01:31;98445.09;;;7.99;79.98
55604;BME280;41468;48.838;9.330;2023-04-27T05:03:58;98449.47;;;8.03;78.55
55604;BME280;41468;48.838;9.330;2023-04-27T05:06:25;98456.53;;;7.92;79.20
55604;BME280;41468;48.838;9.330;2023-04-27T05:08:52;98456.59;;;8.08;79.42
55604;BME280;41468;48.838;9.330;2023-04-27T05:11:18;98454.56;;;8.05;79.01
55604;BME280;41468;48.838;9.330;2023-04-27T05:13:45;98456.09;;;8.18;78.01
55604;BME280;41468;48.838;9.330;2023-04-27T05:16:13;98456.63;;;8.24;78.02
55604;BME280;41468;48.838;9.330;2023-04-27T05:18:40;98457.34;;;8.36;77.21
55604;BME280;41468;48.838;9.330;2023-04-27T05:21:16;98461.53;;;8.18;78.11
55604;BME280;41468;48.838;9.330;2023-04-27T05:23:46;98455.94;;;8.27;77.78
55604;BME280;41468;48.838;9.330;2023-04-27T05:26:14;98447.50;;;8.32;77.54
55604;BME280;41468;48.838;9.330;2023-04-27T05:28:42;98462.72;;;8.33;78.05
55604;BME280;41468;48.838;9.330;2023-04-27T05:31:19;98456.63;;;8.24;77.18
55604;BME280;41468;48.838;9.330;2023-04-27T05:33:46;98461.56;;;8.34;77.35
55604;BME280;41468;48.838;9.330;2023-04-27T05:36:13;98462.72;;;8.05;77.67
55604;BME280;41468;48.838;9.330;2023-04-27T05:38:44;98459.50;;;8.15;77.68
55604;BME280;41468;48.838;9.330;2023-04-27T05:41:11;98465.91;;;8.07;77.74
55604;BME280;41468;48.838;9.330;2023-04-27T05:43:37;98459.78;;;8.26;76.78
55604;BME280;41468;48.838;9.330;2023-04-27T05:46:04;98467.00;;;8.34;76.13
55604;BME280;41468;48.838;9.330;2023-04-27T05:48:31;98462.44;;;8.38;75.71
55604;BME280;41468;48.838;9.330;2023-04-27T05:51:01;98467.88;;;8.38;75.74
55604;BME280;41468;48.838;9.330;2023-04-27T05:53:29;98472.66;;;8.41;76.24
55604;BME280;41468;48.838;9.330;2023-04-27T05:55:56;98468.63;;;8.51;75.41
55604;BME280;41468;48.838;9.330;2023-04-27T05:58:24;98471.88;;;8.72;74.71
55604;BME280;41468;48.838;9.330;2023-04-27T06:00:52;98482.78;;;8.72;75.17
55604;BME280;41468;48.838;9.330;2023-04-27T06:03:19;98477.06;;;8.77;74.12
55604;BME280;41468;48.838;9.330;2023-04-27T06:05:58;98490.69;;;8.93;74.01
55604;BME280;41468;48.838;9.330;2023-04-27T06:08:26;98498.78;;;8.90;73.93
55604;BME280;41468;48.838;9.330;2023-04-27T06:10:53;98492.69;;;9.12;72.93
55604;BME280;41468;48.838;9.330;2023-04-27T06:13:20;98495.34;;;8.93;73.77
55604;BME280;41468;48.838;9.330;2023-04-27T06:15:51;98494.56;;;9.08;73.12
55604;BME280;41468;48.838;9.330;2023-04-27T06:18:18;98491.84;;;9.08;72.72
55604;BME280;41468;48.838;9.330;2023-04-27T06:20:45;98488.91;;;9.33;72.39
55604;BME280;41468;48.838;9.330;2023-04-27T06:23:12;98500.78;;;9.24;70.62
55604;BME280;41468;48.838;9.330;2023-04-27T06:25:39;98499.19;;;8.92;71.10
55604;BME280;41468;48.838;9.330;2023-04-27T06:28:06;98500.44;;;9.10;71.04
55604;BME280;41468;48.838;9.330;2023-04-27T06:30:37;98505.66;;;9.35;71.08
55604;BME280;41468;48.838;9.330;2023-04-27T06:33:05;98498.34;;;9.55;69.10
55604;BME280;41468;48.838;9.330;2023-04-27T06:35:31;98496.97;;;9.64;69.44
55604;BME280;41468;48.838;9.330;2023-04-27T06:37:58;98495.56;;;9.70;68.77
55604;BME280;41468;48.838;9.330;2023-04-27T06:40:25;98513.66;;;9.79;69.38
55604;BME280;41468;48.838;9.330;2023-04-27T06:42:52;98496.97;;;9.64;68.30
55604;BME280;41468;48.838;9.330;2023-04-27T06:45:19;98499.31;;;9.82;67.93
55604;BME280;41468;48.838;9.330;2023-04-27T06:47:46;98496.13;;;9.80;67.12
55604;BME280;41468;48.838;9.330;2023-04-27T06:50:13;98497.16;;;10.10;66.61
55604;BME280;41468;48.838;9.330;2023-04-27T06:52:40;98493.41;;;9.99;64.89
55604;BME280;41468;48.838;9.330;2023-04-27T06:55:07;98499.28;;;10.21;64.24
55604;BME280;41468;48.838;9.330;2023-04-27T06:57:34;98502.84;;;10.21;62.97
55604;BME280;41468;48.838;9.330;2023-04-27T07:00:02;98503.06;;;10.32;63.21
55604;BME280;41468;48.838;9.330;2023-04-27T07:02:30;98509.13;;;10.25;63.08
55604;BME280;41468;48.838;9.330;2023-04-27T07:04:57;98509.53;;;10.43;63.29
55604;BME280;41468;48.838;9.330;2023-04-27T07:07:24;98507.22;;;10.68;63.16
55604;BME280;41468;48.838;9.330;2023-04-27T07:09:50;98519.28;;;10.44;63.66
55604;BME280;41468;48.838;9.330;2023-04-27T07:12:21;98507.63;;;10.67;63.53
55604;BME280;41468;48.838;9.330;2023-04-27T07:14:48;98516.41;;;10.79;64.84
55604;BME280;41468;48.838;9.330;2023-04-27T07:17:16;98522.44;;;10.89;64.32
55604;BME280;41468;48.838;9.330;2023-04-27T07:19:43;98520.44;;;10.86;61.25
55604;BME280;41468;48.838;9.330;2023-04-27T07:22:10;98516.22;;;10.92;60.40
55604;BME280;41468;48.838;9.330;2023-04-27T07:24:37;98517.44;;;10.94;61.67
55604;BME280;41468;48.838;9.330;2023-04-27T07:27:03;98509.16;;;11.14;61.74
55604;BME280;41468;48.838;9.330;2023-04-27T07:29:30;98511.81;;;11.33;61.88
55604;BME280;41468;48.838;9.330;2023-04-27T07:31:58;98516.81;;;11.54;61.02
55604;BME280;41468;48.838;9.330;2023-04-27T07:34:25;98511.97;;;10.94;63.04
55604;BME280;41468;48.838;9.330;2023-04-27T07:36:58;98507.19;;;11.37;61.26
55604;BME280;41468;48.838;9.330;2023-04-27T07:39:24;98511.34;;;11.54;60.24
55604;BME280;41468;48.838;9.330;2023-04-27T07:41:52;98505.88;;;11.54;58.03
55604;BME280;41468;48.838;9.330;2023-04-27T07:44:19;98495.06;;;11.65;58.28
55604;BME280;41468;48.838;9.330;2023-04-27T07:46:46;98499.00;;;11.94;59.77
55604;BME280;41468;48.838;9.330;2023-04-27T07:49:15;98496.47;;;12.46;57.12
55604;BME280;41468;48.838;9.330;2023-04-27T07:51:46;98503.78;;;12.72;56.08
55604;BME280;41468;48.838;9.330;2023-04-27T07:54:13;98500.53;;;13.03;56.79
55604;BME280;41468;48.838;9.330;2023-04-27T07:56:41;98494.41;;;13.21;55.22
55604;BME280;41468;48.838;9.330;2023-04-27T07:59:08;98498.56;;;13.52;54.56
55604;BME280;41468;48.838;9.330;2023-04-27T08:01:35;98506.19;;;13.84;53.31
55604;BME280;41468;48.838;9.330;2023-04-27T08:04:02;98511.38;;;14.00;53.32
55604;BME280;41468;48.838;9.330;2023-04-27T08:06:29;98498.06;;;14.05;53.04
55604;BME280;41468;48.838;9.330;2023-04-27T08:08:57;98497.19;;;13.87;52.26
55604;BME280;41468;48.838;9.330;2023-04-27T08:11:26;98503.22;;;14.25;53.21
55604;BME280;41468;48.838;9.330;2023-04-27T08:13:53;98503.63;;;14.34;52.29
55604;BME280;41468;48.838;9.330;2023-04-27T08:16:19;98498.25;;;14.77;53.59
55604;BME280;41468;48.838;9.330;2023-04-27T08:18:48;98500.63;;;14.89;50.93
55604;BME280;41468;48.838;9.330;2023-04-27T08:21:26;98490.03;;;15.23;51.24
55604;BME280;41468;48.838;9.330;2023-04-27T08:23:54;98492.78;;;15.27;50.08
55604;BME280;41468;48.838;9.330;2023-04-27T08:26:20;98488.06;;;15.24;49.79
55604;BME280;41468;48.838;9.330;2023-04-27T08:28:50;98482.91;;;15.44;47.86
55604;BME280;41468;48.838;9.330;2023-04-27T08:31:17;98488.00;;;15.53;48.65
55604;BME280;41468;48.838;9.330;2023-04-27T08:33:44;98486.47;;;15.30;48.74
55604;BME280;41468;48.838;9.330;2023-04-27T08:36:11;98477.75;;;15.78;48.22
55604;BME280;41468;48.838;9.330;2023-04-27T08:38:37;98485.94;;;16.00;45.88
55604;BME280;41468;48.838;9.330;2023-04-27T08:41:04;98479.50;;;16.28;46.54
55604;BME280;41468;48.838;9.330;2023-04-27T08:43:47;98472.84;;;16.29;45.43
55604;BME280;41468;48.838;9.330;2023-04-27T08:46:21;98475.97;;;16.27;43.89
55604;BME280;41468;48.838;9.330;2023-04-27T08:48:54;98475.75;;;15.89;44.16
55604;BME280;41468;48.838;9.330;2023-04-27T08:51:22;98472.22;;;15.89;42.90
55604;BME280;41468;48.838;9.330;2023-04-27T08:53:56;98467.38;;;16.18;44.51
55604;BME280;41468;48.838;9.330;2023-04-27T08:56:26;98460.41;;;16.66;43.48
55604;BME280;41468;48.838;9.330;2023-04-27T08:59:13;98457.69;;;16.59;41.14
55604;BME280;41468;48.838;9.330;2023-04-27T09:01:45;98456.06;;;16.65;41.94
55604;BME280;41468;48.838;9.330;2023-04-27T09:04:14;98467.84;;;16.72;42.91
55604;BME280;41468;48.838;9.330;2023-04-27T09:06:46;98459.81;;;16.92;42.58
55604;BME280;41468;48.838;9.330;2023-04-27T09:09:23;98459.97;;;16.71;42.49
55604;BME280;41468;48.838;9.330;2023-04-27T09:11:50;98468.31;;;17.16;43.16
55604;BME280;41468;48.838;9.330;2023-04-27T09:14:20;98463.09;;;16.73;40.94
55604;BME280;41468;48.838;9.330;2023-04-27T09:16:54;98461.63;;;16.61;42.59
55604;BME280;41468;48.838;9.330;2023-04-27T09:19:29;98460.44;;;16.59;42.15
55604;BME280;41468;48.838;9.330;2023-04-27T09:22:09;98461.06;;;16.84;42.15
55604;BME280;41468;48.838;9.330;2023-04-27T09:24:37;98464.28;;;17.28;42.73
55604;BME280;41468;48.838;9.330;2023-04-27T09:27:05;98481.59;;;17.28;40.33
55604;BME280;41468;48.838;9.330;2023-04-27T09:29:34;98470.25;;;17.57;41.57
55604;BME280;41468;48.838;9.330;2023-04-27T09:32:01;98471.72;;;17.69;41.83
55604;BME280;41468;48.838;9.330;2023-04-27T09:34:38;98478.09;;;17.62;41.67
55604;BME280;41468;48.838;9.330;2023-04-27T09:37:07;98474.78;;;17.78;41.23
55604;BME280;41468;48.838;9.330;2023-04-27T09:39:35;98472.72;;;18.20;41.27
55604;BME280;41468;48.838;9.330;2023-04-27T09:42:02;98470.59;;;18.31;40.26
55604;BME280;41468;48.838;9.330;2023-04-27T09:44:37;98476.28;;;18.20;39.26
55604;BME280;41468;48.838;9.330;2023-04-27T09:47:04;98465.81;;;18.35;38.71
55604;BME280;41468;48.838;9.330;2023-04-27T09:49:33;98472.28;;;18.52;39.70
55604;BME280;41468;48.838;9.330;2023-04-27T09:51:59;98463.38;;;18.68;41.20
55604;BME280;41468;48.838;9.330;2023-04-27T09:54:29;98456.56;;;18.76;40.66
55604;BME280;41468;48.838;9.330;2023-04-27T10:03:25;98453.34;;;18.50;40.51
55604;BME280;41468;48.838;9.330;2023-04-27T10:08:58;98458.47;;;18.21;39.94
55604;BME280;41468;48.838;9.330;2023-04-27T10:11:38;98449.22;;;18.89;38.98
55604;BME280;41468;48.838;9.330;2023-04-27T10:14:07;98439.72;;;19.14;37.94
55604;BME280;41468;48.838;9.330;2023-04-27T10:16:51;98445.59;;;19.39;38.84
55604;BME280;41468;48.838;9.330;2023-04-27T10:19:19;98460.25;;;19.60;37.81
55604;BME280;41468;48.838;9.330;2023-04-27T10:22:01;98454.53;;;19.71;36.36
55604;BME280;41468;48.838;9.330;2023-04-27T10:24:38;98457.59;;;19.96;35.59
55604;BME280;41468;48.838;9.330;2023-04-27T10:27:07;98453.19;;;19.99;36.02
55604;BME280;41468;48.838;9.330;2023-04-27T10:29:41;98451.41;;;19.69;36.56
55604;BME280;41468;48.838;9.330;2023-04-27T10:32:27;98455.38;;;19.88;36.42
55604;BME280;41468;48.838;9.330;2023-04-27T10:35:04;98463.84;;;20.20;36.77
55604;BME280;41468;48.838;9.330;2023-04-27T10:37:38;98454.88;;;20.13;37.39
55604;BME280;41468;48.838;9.330;2023-04-27T10:40:11;98455.84;;;20.22;37.08
55604;BME280;41468;48.838;9.330;2023-04-27T10:42:51;98455.31;;;20.11;35.12
55604;BME280;41468;48.838;9.330;2023-04-27T10:45:27;98443.22;;;20.21;35.36
55604;BME280;41468;48.838;9.330;2023-04-27T10:47:58;98439.72;;;20.17;34.99
55604;BME280;41468;48.838;9.330;2023-04-27T10:50:26;98449.22;;;20.36;36.82
55604;BME280;41468;48.838;9.330;2023-04-27T10:52:53;98439.91;;;20.10;37.03
55604;BME280;41468;48.838;9.330;2023-04-27T10:55:21;98436.72;;;20.28;36.68
55604;BME280;41468;48.838;9.330;2023-04-27T10:57:53;98428.50;;;20.41;38.00
55604;BME280;41468;48.838;9.330;2023-04-27T11:00:28;98438.69;;;20.47;36.67
55604;BME280;41468;48.838;9.330;2023-04-27T11:02:57;98436.22;;;20.69;36.54
55604;BME280;41468;48.838;9.330;2023-04-27T11:05:26;98429.38;;;20.38;36.75
55604;BME280;41468;48.838;9.330;2023-04-27T11:08:09;98438.06;;;20.40;37.00
55604;BME280;41468;48.838;9.330;2023-04-27T11:10:41;98441.06;;;20.29;35.64
55604;BME280;41468;48.838;9.330;2023-04-27T11:13:10;98449.44;;;20.25;36.51
55604;BME280;41468;48.838;9.330;2023-04-27T11:18:18;98437.66;;;20.21;35.94
55604;BME280;41468;48.838;9.330;2023-04-27T11:20:50;98442.72;;;20.26;37.03
55604;BME280;41468;48.838;9.330;2023-04-27T11:23:29;98431.72;;;20.03;35.47
55604;BME280;41468;48.838;9.330;2023-04-27T11:28:36;98425.47;;;20.88;36.02
55604;BME280;41468;48.838;9.330;2023-04-27T11:31:03;98428.75;;;19.94;35.83
55604;BME280;41468;48.838;9.330;2023-04-27T11:33:30;98422.75;;;19.35;38.69
55604;BME280;41468;48.838;9.330;2023-04-27T11:35:57;98421.19;;;20.14;38.22
55604;BME280;41468;48.838;9.330;2023-04-27T11:38:24;98414.47;;;20.32;38.43
55604;BME280;41468;48.838;9.330;2023-04-27T11:41:06;98418.91;;;20.45;37.08
55604;BME280;41468;48.838;9.330;2023-04-27T11:43:33;98417.31;;;20.28;36.88
55604;BME280;41468;48.838;9.330;2023-04-27T11:46:03;98422.94;;;19.68;38.56
55604;BME280;41468;48.838;9.330;2023-04-27T11:48:31;98428.91;;;20.23;36.97
55604;BME280;41468;48.838;9.330;2023-04-27T11:50:58;98426.53;;;19.85;36.80
55604;BME280;41468;48.838;9.330;2023-04-27T11:53:33;98426.34;;;20.32;36.73
55604;BME280;41468;48.838;9.330;2023-04-27T11:56:06;98425.75;;;20.41;36.11
55604;BME280;41468;48.838;9.330;2023-04-27T11:58:37;98415.63;;;20.50;35.89
55604;BME280;41468;48.838;9.330;2023-04-27T12:01:16;98422.97;;;20.41;38.04
55604;BME280;41468;48.838;9.330;2023-04-27T12:04:00;98416.84;;;20.66;38.80
55604;BME280;41468;48.838;9.330;2023-04-27T12:06:28;98414.63;;;20.77;36.73
55604;BME280;41468;48.838;9.330;2023-04-27T12:08:59;98407.03;;;21.10;36.45
55604;BME280;41468;48.838;9.330;2023-04-27T12:11:29;98407.75;;;21.14;36.16
55604;BME280;41468;48.838;9.330;2023-04-27T12:13:59;98411.47;;;21.08;35.28
55604;BME280;41468;48.838;9.330;2023-04-27T12:16:26;98414.25;;;21.08;35.33
55604;BME280;41468;48.838;9.330;2023-04-27T12:18:53;98400.22;;;20.99;36.77
55604;BME280;41468;48.838;9.330;2023-04-27T12:21:20;98396.38;;;20.92;35.37
55604;BME280;41468;48.838;9.330;2023-04-27T12:23:47;98400.66;;;20.81;36.01
55604;BME280;41468;48.838;9.330;2023-04-27T12:26:18;98400.50;;;20.88;35.51
55604;BME280;41468;48.838;9.330;2023-04-27T12:28:46;98403.19;;;20.22;35.86
55604;BME280;41468;48.838;9.330;2023-04-27T12:31:14;98395.97;;;20.78;35.67
55604;BME280;41468;48.838;9.330;2023-04-27T12:33:42;98408.03;;;20.71;36.83
55604;BME280;41468;48.838;9.330;2023-04-27T12:36:08;98389.56;;;21.26;37.98
55604;BME280;41468;48.838;9.330;2023-04-27T12:38:35;98389.56;;;20.81;38.04
55604;BME280;41468;48.838;9.330;2023-04-27T12:41:02;98380.69;;;21.02;37.69
55604;BME280;41468;48.838;9.330;2023-04-27T12:43:29;98389.19;;;20.95;36.43
55604;BME280;41468;48.838;9.330;2023-04-27T12:45:56;98398.25;;;20.83;36.86
55604;BME280;41468;48.838;9.330;2023-04-27T12:48:22;98388.91;;;20.40;36.24
55604;BME280;41468;48.838;9.330;2023-04-27T12:50:54;98388.19;;;20.72;37.07
55604;BME280;41468;48.838;9.330;2023-04-27T12:53:22;98389.28;;;20.42;37.02
55604;BME280;41468;48.838;9.330;2023-04-27T12:55:48;98373.56;;;20.52;38.72
55604;BME280;41468;48.838;9.330;2023-04-27T12:58:15;98382.84;;;20.29;38.17
55604;BME280;41468;48.838;9.330;2023-04-27T13:00:42;98387.06;;;20.34;38.03
55604;BME280;41468;48.838;9.330;2023-04-27T13:03:09;98378.69;;;20.01;37.88
55604;BME280;41468;48.838;9.330;2023-04-27T13:05:36;98375.38;;;19.90;39.08
55604;BME280;41468;48.838;9.330;2023-04-27T13:08:03;98375.38;;;19.90;38.68
55604;BME280;41468;48.838;9.330;2023-04-27T13:10:31;98377.75;;;19.71;38.88
55604;BME280;41468;48.838;9.330;2023-04-27T13:12:57;98373.50;;;19.67;37.70
55604;BME280;41468;48.838;9.330;2023-04-27T13:15:25;98362.63;;;19.76;38.14
55604;BME280;41468;48.838;9.330;2023-04-27T13:17:52;98367.66;;;19.81;38.57
55604;BME280;41468;48.838;9.330;2023-04-27T13:20:19;98367.00;;;19.93;38.31
55604;BME280;41468;48.838;9.330;2023-04-27T13:22:46;98364.28;;;20.10;40.27
55604;BME280;41468;48.838;9.330;2023-04-27T13:25:13;98364.53;;;19.99;39.21
55604;BME280;41468;48.838;9.330;2023-04-27T13:27:42;98358.88;;;20.02;38.19